createdAt,value
2022-12-26T00:01:51.237Z,9.30
2022-12-26T00:04:50.127Z,9.30
2022-12-26T00:07:06.405Z,9.30
2022-12-26T00:09:34.375Z,9.30
2022-12-26T00:12:01.700Z,9.30
2022-12-26T00:14:28.871Z,9.30
2022-12-26T00:16:56.116Z,9.30
2022-12-26T00:19:24.130Z,9.30
2022-12-26T00:21:51.332Z,9.30
2022-12-26T00:24:18.502Z,9.40
2022-12-26T00:26:45.741Z,9.40
2022-12-26T00:29:12.944Z,9.40
2022-12-26T00:31:40.348Z,9.40
2022-12-26T00:34:07.572Z,9.40
2022-12-26T00:36:35.014Z,9.40
2022-12-26T00:39:03.584Z,9.40
2022-12-26T00:41:31.599Z,9.40
2022-12-26T00:44:00.159Z,9.30
2022-12-26T00:46:27.885Z,9.30
2022-12-26T00:48:55.293Z,9.30
2022-12-26T00:51:22.840Z,9.30
2022-12-26T00:53:50.304Z,9.20
2022-12-26T00:56:17.669Z,9.30
2022-12-26T00:58:45.031Z,9.30
2022-12-26T01:01:21.530Z,9.30
2022-12-26T01:03:50.103Z,9.30
2022-12-26T01:06:17.876Z,9.20
2022-12-26T01:08:45.384Z,9.30
2022-12-26T01:11:15.160Z,9.20
2022-12-26T01:13:43.304Z,9.30
2022-12-26T01:16:10.663Z,9.30
2022-12-26T01:18:38.015Z,9.30
2022-12-26T01:21:08.362Z,9.30
2022-12-26T01:23:35.916Z,9.30
2022-12-26T01:26:17.876Z,9.30
2022-12-26T01:28:50.122Z,9.30
2022-12-26T01:31:18.174Z,9.30
2022-12-26T01:33:45.765Z,9.30
2022-12-26T01:36:13.064Z,9.30
2022-12-26T01:38:40.281Z,9.20
2022-12-26T01:41:17.250Z,9.30
2022-12-26T01:43:49.926Z,9.30
2022-12-26T01:46:21.538Z,9.30
2022-12-26T01:48:49.264Z,9.40
2022-12-26T01:51:18.782Z,9.30
2022-12-26T01:53:49.132Z,9.30
2022-12-26T01:56:30.028Z,9.30
2022-12-26T01:59:05.675Z,9.20
2022-12-26T02:01:36.202Z,9.20
2022-12-26T02:04:24.881Z,9.30
2022-12-26T02:06:52.602Z,9.30
2022-12-26T02:09:20.676Z,9.30
2022-12-26T02:12:36.138Z,9.30
2022-12-26T02:14:43.062Z,9.40
2022-12-26T02:17:10.823Z,9.40
2022-12-26T02:20:04.672Z,9.40
2022-12-26T02:23:23.540Z,9.40
2022-12-26T02:26:05.930Z,9.40
2022-12-26T02:28:49.704Z,9.40
2022-12-26T02:31:48.446Z,9.50
2022-12-26T02:34:23.154Z,9.50
2022-12-26T02:37:28.428Z,9.40
2022-12-26T02:40:36.473Z,9.50
2022-12-26T02:43:37.039Z,9.40
2022-12-26T02:46:42.781Z,9.40
2022-12-26T02:49:15.914Z,9.50
2022-12-26T02:52:18.339Z,9.40
2022-12-26T02:55:09.918Z,9.40
2022-12-26T02:58:05.846Z,9.40
2022-12-26T03:00:53.781Z,9.40
2022-12-26T03:03:43.299Z,9.40
2022-12-26T03:06:34.276Z,9.40
2022-12-26T03:09:31.365Z,9.40
2022-12-26T03:12:41.614Z,9.40
2022-12-26T03:15:16.066Z,9.40
2022-12-26T03:18:05.857Z,9.40
2022-12-26T03:20:38.791Z,9.40
2022-12-26T03:23:09.093Z,9.40
2022-12-26T03:25:55.032Z,9.40
2022-12-26T03:28:23.409Z,9.40
2022-12-26T03:30:52.424Z,9.40
2022-12-26T03:33:43.745Z,9.40
2022-12-26T03:36:23.506Z,9.40
2022-12-26T03:38:58.816Z,9.50
2022-12-26T03:42:12.290Z,9.50
2022-12-26T03:45:14.640Z,9.50
2022-12-26T03:48:06.411Z,9.50
2022-12-26T03:51:01.663Z,9.50
2022-12-26T03:53:56.625Z,9.60
2022-12-26T03:56:57.394Z,9.60
2022-12-26T03:59:57.807Z,9.60
2022-12-26T04:02:45.584Z,9.60
2022-12-26T04:05:39.201Z,9.60
2022-12-26T04:08:46.728Z,9.60
2022-12-26T04:11:36.175Z,9.60
2022-12-26T04:14:41.529Z,9.60
2022-12-26T04:17:39.920Z,9.60
2022-12-26T04:20:20.461Z,9.60
2022-12-26T04:23:12.618Z,9.60
2022-12-26T04:26:11.441Z,9.60
2022-12-26T04:28:57.157Z,9.60
2022-12-26T04:31:52.018Z,9.60
2022-12-26T04:34:48.189Z,9.60
2022-12-26T04:37:41.496Z,9.60
2022-12-26T04:40:32.354Z,9.60
2022-12-26T04:43:47.225Z,9.60
2022-12-26T04:46:07.082Z,9.60
2022-12-26T04:49:00.142Z,9.60
2022-12-26T04:51:27.640Z,9.60
2022-12-26T04:53:54.840Z,9.60
2022-12-26T04:56:22.093Z,9.60
2022-12-26T04:58:50.149Z,9.60
2022-12-26T05:01:36.057Z,9.60
2022-12-26T05:04:21.937Z,9.60
2022-12-26T05:07:07.835Z,9.60
2022-12-26T05:09:35.516Z,9.60
2022-12-26T05:12:11.488Z,9.60
2022-12-26T05:14:38.789Z,9.60
2022-12-26T05:17:26.209Z,9.60
2022-12-26T05:20:12.089Z,9.60
2022-12-26T05:23:00.568Z,9.60
2022-12-26T05:25:56.287Z,9.60
2022-12-26T05:28:41.904Z,9.70
2022-12-26T05:31:15.252Z,9.70
2022-12-26T05:34:01.453Z,9.70
2022-12-26T05:36:39.368Z,9.70
2022-12-26T05:39:07.646Z,9.70
2022-12-26T05:41:35.944Z,9.60
2022-12-26T05:44:03.375Z,9.70
2022-12-26T05:46:30.750Z,9.70
2022-12-26T05:48:57.936Z,9.60
2022-12-26T05:51:25.418Z,9.70
2022-12-26T05:53:52.739Z,9.60
2022-12-26T05:56:20.732Z,9.70
2022-12-26T05:58:48.416Z,9.70
2022-12-26T06:01:18.346Z,9.60
2022-12-26T06:03:53.771Z,9.60
2022-12-26T06:06:21.996Z,9.60
2022-12-26T06:08:54.677Z,9.60
2022-12-26T06:11:23.115Z,9.60
2022-12-26T06:13:50.289Z,9.60
2022-12-26T06:16:18.527Z,9.50
2022-12-26T06:18:46.359Z,9.50
2022-12-26T06:21:18.053Z,9.40
2022-12-26T06:23:45.475Z,9.40
2022-12-26T06:26:13.134Z,9.40
2022-12-26T06:28:41.839Z,9.40
2022-12-26T06:31:12.645Z,9.40
2022-12-26T06:33:40.279Z,9.40
2022-12-26T06:36:10.655Z,9.40
2022-12-26T06:38:38.178Z,9.30
2022-12-26T06:41:07.100Z,9.40
2022-12-26T06:43:34.730Z,9.40
2022-12-26T06:46:04.471Z,9.40
2022-12-26T06:48:32.114Z,9.30
2022-12-26T06:51:04.342Z,9.40
2022-12-26T06:53:33.583Z,9.40
2022-12-26T06:56:15.743Z,9.40
2022-12-26T06:58:43.519Z,9.30
2022-12-26T07:01:14.388Z,9.30
2022-12-26T07:03:50.461Z,9.40
2022-12-26T07:06:33.227Z,9.40
2022-12-26T07:09:06.064Z,9.40
2022-12-26T07:11:35.277Z,9.50
2022-12-26T07:14:03.197Z,9.50
2022-12-26T07:16:30.530Z,9.50
2022-12-26T07:19:00.234Z,9.50
2022-12-26T07:21:28.540Z,9.50
2022-12-26T07:23:56.260Z,9.50
2022-12-26T07:26:25.680Z,9.60
2022-12-26T07:28:54.710Z,9.60
2022-12-26T07:31:22.151Z,9.60
2022-12-26T07:33:51.158Z,9.70
2022-12-26T07:36:19.358Z,9.70
2022-12-26T07:38:47.244Z,9.70
2022-12-26T07:41:33.462Z,9.70
2022-12-26T07:44:01.033Z,9.70
2022-12-26T07:46:28.421Z,9.80
2022-12-26T07:48:55.688Z,9.80
2022-12-26T07:51:23.137Z,9.90
2022-12-26T07:53:50.403Z,9.90
2022-12-26T07:56:17.613Z,9.90
2022-12-26T07:58:48.660Z,9.90
2022-12-26T08:01:16.404Z,9.90
2022-12-26T08:03:44.400Z,10.00
2022-12-26T08:06:11.963Z,10.00
2022-12-26T08:08:41.098Z,10.00
2022-12-26T08:11:16.740Z,10.00
2022-12-26T08:13:45.190Z,10.00
2022-12-26T08:16:14.918Z,10.10
2022-12-26T08:18:43.067Z,10.10
2022-12-26T08:21:11.533Z,10.20
2022-12-26T08:23:39.056Z,10.20
2022-12-26T08:26:11.811Z,10.20
2022-12-26T08:28:39.417Z,10.30
2022-12-26T08:31:08.558Z,10.20
2022-12-26T08:33:37.307Z,10.30
2022-12-26T08:36:10.592Z,10.30
2022-12-26T08:38:37.807Z,10.30
2022-12-26T08:41:05.869Z,10.30
2022-12-26T08:44:03.531Z,10.30
2022-12-26T08:46:22.538Z,10.40
2022-12-26T08:48:51.174Z,10.30
2022-12-26T08:51:25.359Z,10.40
2022-12-26T08:53:54.777Z,10.30
2022-12-26T08:56:25.575Z,10.30
2022-12-26T08:58:53.629Z,10.20
2022-12-26T09:01:24.953Z,10.20
2022-12-26T09:03:54.065Z,10.20
2022-12-26T09:06:21.908Z,10.20
2022-12-26T09:08:49.676Z,10.30
2022-12-26T09:11:21.882Z,10.30
2022-12-26T09:13:50.294Z,10.40
2022-12-26T09:16:23.068Z,10.40
2022-12-26T09:18:56.193Z,10.40
2022-12-26T09:21:24.645Z,10.40
2022-12-26T09:24:04.164Z,10.50
2022-12-26T09:26:33.543Z,10.50
2022-12-26T09:29:01.548Z,10.50
2022-12-26T09:31:32.878Z,10.50
2022-12-26T09:34:03.087Z,10.60
2022-12-26T09:36:33.921Z,10.60
2022-12-26T09:39:01.577Z,10.70
2022-12-26T09:41:47.758Z,10.70
2022-12-26T09:44:40.827Z,10.80
2022-12-26T09:47:25.405Z,10.80
2022-12-26T09:50:05.898Z,10.80
2022-12-26T09:52:54.410Z,10.90
2022-12-26T09:55:53.026Z,10.90
2022-12-26T09:58:26.597Z,10.90
2022-12-26T10:00:57.334Z,10.90
2022-12-26T10:03:27.260Z,10.90
2022-12-26T10:06:12.376Z,10.90
2022-12-26T10:09:12.744Z,10.80
2022-12-26T10:11:51.448Z,10.90
2022-12-26T10:14:40.663Z,10.90
2022-12-26T10:17:38.648Z,10.90
2022-12-26T10:20:25.152Z,11.00
2022-12-26T10:23:13.318Z,11.00
2022-12-26T10:25:53.369Z,11.00
2022-12-26T10:29:04.964Z,10.90
2022-12-26T10:34:32.184Z,10.90
2022-12-26T10:37:03.619Z,10.90
2022-12-26T10:39:38.116Z,10.90
2022-12-26T10:42:23.484Z,10.90
2022-12-26T10:44:50.664Z,11.00
2022-12-26T10:47:28.576Z,11.00
2022-12-26T10:50:01.188Z,11.10
2022-12-26T10:52:37.216Z,11.20
2022-12-26T10:55:27.901Z,11.20
2022-12-26T10:57:53.410Z,11.30
2022-12-26T11:00:27.157Z,11.30
2022-12-26T11:03:13.348Z,11.30
2022-12-26T11:08:49.666Z,11.20
2022-12-26T11:11:45.976Z,11.10
2022-12-26T11:14:30.141Z,11.10
2022-12-26T11:17:30.486Z,11.10
2022-12-26T11:20:16.711Z,11.10
2022-12-26T11:22:45.541Z,11.10
2022-12-26T11:25:18.381Z,11.10
2022-12-26T11:27:55.225Z,11.10
2022-12-26T11:30:24.879Z,11.10
2022-12-26T11:33:13.721Z,11.10
2022-12-26T11:35:57.669Z,11.10
2022-12-26T11:38:44.429Z,11.10
2022-12-26T11:41:31.719Z,11.10
2022-12-26T11:44:30.305Z,11.10
2022-12-26T11:47:02.257Z,11.20
2022-12-26T11:49:39.602Z,11.20
2022-12-26T11:52:37.722Z,11.10
2022-12-26T11:55:27.315Z,11.10
2022-12-26T11:58:06.857Z,11.10
2022-12-26T12:00:39.321Z,11.10
2022-12-26T12:03:18.676Z,11.10
2022-12-26T12:06:03.121Z,11.20
2022-12-26T12:08:48.923Z,11.20
2022-12-26T12:11:54.555Z,11.20
2022-12-26T12:14:54.375Z,11.10
2022-12-26T12:17:29.827Z,11.10
2022-12-26T12:20:30.573Z,11.10
2022-12-26T12:23:26.477Z,11.00
2022-12-26T12:26:02.669Z,11.10
2022-12-26T12:28:30.085Z,11.10
2022-12-26T12:31:09.393Z,11.10
2022-12-26T12:33:48.940Z,11.10
2022-12-26T12:36:23.257Z,11.10
2022-12-26T12:39:13.393Z,11.10
2022-12-26T12:41:51.898Z,11.10
2022-12-26T12:44:50.372Z,11.10
2022-12-26T12:47:35.925Z,11.00
2022-12-26T12:50:35.838Z,11.00
2022-12-26T12:53:47.709Z,11.00
2022-12-26T12:56:42.425Z,10.90
2022-12-26T12:59:35.362Z,10.90
2022-12-26T13:02:22.794Z,10.80
2022-12-26T13:05:00.947Z,10.70
2022-12-26T13:07:47.201Z,10.70
2022-12-26T13:10:26.463Z,10.60
2022-12-26T13:12:55.168Z,10.60
2022-12-26T13:15:40.757Z,10.60
2022-12-26T13:18:14.968Z,10.60
2022-12-26T13:20:56.023Z,10.60
2022-12-26T13:23:50.511Z,10.50
2022-12-26T13:26:52.927Z,10.50
2022-12-26T13:29:23.230Z,10.60
2022-12-26T13:31:52.497Z,10.60
2022-12-26T13:34:21.528Z,10.50
2022-12-26T13:36:51.192Z,10.50
2022-12-26T13:39:39.965Z,10.50
2022-12-26T13:42:28.619Z,10.50
2022-12-26T13:44:55.904Z,10.50
2022-12-26T13:47:43.521Z,10.50
2022-12-26T13:50:53.477Z,10.50
2022-12-26T13:53:26.119Z,10.50
2022-12-26T13:56:04.638Z,10.40
2022-12-26T13:58:53.064Z,10.40
2022-12-26T14:01:32.783Z,10.40
2022-12-26T14:04:26.699Z,10.30
2022-12-26T14:07:05.718Z,10.30
2022-12-26T14:10:05.982Z,10.30
2022-12-26T14:12:58.140Z,10.30
2022-12-26T14:15:51.194Z,10.30
2022-12-26T14:18:47.862Z,10.30
2022-12-26T14:21:39.461Z,10.30
2022-12-26T14:24:12.758Z,10.20
2022-12-26T14:27:12.560Z,10.20
2022-12-26T14:29:59.208Z,10.10
2022-12-26T14:32:40.884Z,10.10
2022-12-26T14:35:34.047Z,10.10
2022-12-26T14:38:39.297Z,10.00
2022-12-26T14:41:34.188Z,10.00
2022-12-26T14:44:35.793Z,9.90
2022-12-26T14:47:04.471Z,9.90
2022-12-26T14:49:35.470Z,9.80
2022-12-26T14:52:25.454Z,9.70
2022-12-26T14:54:53.625Z,9.70
2022-12-26T14:57:49.020Z,9.70
2022-12-26T15:00:28.021Z,9.70
2022-12-26T15:03:01.765Z,9.60
2022-12-26T15:05:50.379Z,9.60
2022-12-26T15:08:44.784Z,9.60
2022-12-26T15:11:39.092Z,9.60
2022-12-26T15:14:22.318Z,9.60
2022-12-26T15:17:28.348Z,9.50
2022-12-26T15:20:22.113Z,9.50
2022-12-26T15:23:37.873Z,9.50
2022-12-26T15:26:27.284Z,9.40
2022-12-26T15:29:00.456Z,9.40
2022-12-26T15:32:12.664Z,9.30
2022-12-26T15:35:06.453Z,9.30
2022-12-26T15:37:56.633Z,9.30
2022-12-26T15:40:28.774Z,9.20
2022-12-26T15:43:09.970Z,9.20
2022-12-26T15:46:18.285Z,9.20
2022-12-26T15:49:30.791Z,9.10
2022-12-26T15:52:34.204Z,9.10
2022-12-26T15:55:35.315Z,9.10
2022-12-26T15:58:30.184Z,9.00
2022-12-26T16:00:59.344Z,9.00
2022-12-26T16:03:45.931Z,9.10
2022-12-26T16:07:01.876Z,9.10
2022-12-26T16:09:45.567Z,9.10
2022-12-26T16:12:35.466Z,9.20
2022-12-26T16:15:11.740Z,9.30
2022-12-26T16:17:40.070Z,9.30
2022-12-26T16:20:48.767Z,9.30
2022-12-26T16:23:23.832Z,9.30
2022-12-26T16:25:53.586Z,9.30
2022-12-26T16:28:42.444Z,9.30
2022-12-26T16:31:16.302Z,9.30
2022-12-26T16:33:44.231Z,9.30
2022-12-26T16:36:21.836Z,9.20
2022-12-26T16:38:52.847Z,9.20
2022-12-26T16:41:22.442Z,9.20
2022-12-26T16:43:52.947Z,9.10
2022-12-26T16:46:26.629Z,9.10
2022-12-26T16:48:59.972Z,9.10
2022-12-26T16:51:44.233Z,9.00
2022-12-26T16:54:21.109Z,9.00
2022-12-26T16:57:09.452Z,9.00
2022-12-26T16:59:49.976Z,9.10
2022-12-26T17:02:22.728Z,9.10
2022-12-26T17:05:32.819Z,9.10
2022-12-26T17:08:02.091Z,9.20
2022-12-26T17:10:37.348Z,9.20
2022-12-26T17:13:09.176Z,9.30
2022-12-26T17:15:49.947Z,9.40
2022-12-26T17:18:39.720Z,9.40
2022-12-26T17:21:30.018Z,9.50
2022-12-26T17:24:09.593Z,9.60
2022-12-26T17:26:38.473Z,9.60
2022-12-26T17:29:05.686Z,9.60
2022-12-26T17:31:40.547Z,9.70
2022-12-26T17:34:28.054Z,9.70
2022-12-26T17:39:43.990Z,9.80
2022-12-26T17:42:12.989Z,9.80
2022-12-26T17:44:45.549Z,9.80
2022-12-26T17:47:20.822Z,9.90
2022-12-26T17:49:51.048Z,9.80
2022-12-26T17:52:24.039Z,9.80
2022-12-26T17:54:52.413Z,9.80
2022-12-26T17:57:24.584Z,9.80
2022-12-26T17:59:53.229Z,9.90
2022-12-26T18:02:21.035Z,9.90
2022-12-26T18:04:49.236Z,9.90
2022-12-26T18:07:30.862Z,9.90
2022-12-26T18:10:02.332Z,9.90
2022-12-26T18:12:29.552Z,9.90
2022-12-26T18:15:02.187Z,9.90
2022-12-26T18:17:32.847Z,9.90
2022-12-26T18:20:02.480Z,9.90
2022-12-26T18:22:30.111Z,9.90
2022-12-26T18:24:57.385Z,9.90
2022-12-26T18:27:31.662Z,9.90
2022-12-26T18:30:00.003Z,9.90
2022-12-26T18:32:30.168Z,9.90
2022-12-26T18:34:58.172Z,9.90
2022-12-26T18:37:29.923Z,9.90
2022-12-26T18:39:57.924Z,9.90
2022-12-26T18:42:26.642Z,9.90
2022-12-26T18:44:54.713Z,9.90
2022-12-26T18:47:22.985Z,9.90
2022-12-26T18:49:50.340Z,9.90
2022-12-26T18:52:18.247Z,9.90
2022-12-26T18:54:46.147Z,9.90
2022-12-26T18:57:19.933Z,9.90
2022-12-26T18:59:48.513Z,9.90
2022-12-26T19:02:35.920Z,9.80
2022-12-26T19:05:03.937Z,9.80
2022-12-26T19:07:31.694Z,9.80
2022-12-26T19:10:01.084Z,9.80
2022-12-26T19:12:29.474Z,9.80
2022-12-26T19:14:56.673Z,9.80
2022-12-26T19:17:24.893Z,9.80
2022-12-26T19:19:52.090Z,9.80
2022-12-26T19:22:21.332Z,9.80
2022-12-26T19:24:48.811Z,9.80
2022-12-26T19:27:16.371Z,9.90
2022-12-26T19:29:43.620Z,9.80
2022-12-26T19:32:12.305Z,9.80
2022-12-26T19:34:39.528Z,9.80
2022-12-26T19:37:07.033Z,9.80
2022-12-26T19:39:34.896Z,9.80
2022-12-26T19:42:02.153Z,9.80
2022-12-26T19:44:31.324Z,9.80
2022-12-26T19:47:11.645Z,9.80
2022-12-26T19:49:41.701Z,9.80
2022-12-26T19:52:10.514Z,9.70
2022-12-26T19:54:38.041Z,9.70
2022-12-26T19:57:05.696Z,9.70
2022-12-26T19:59:33.391Z,9.70
2022-12-26T20:02:01.027Z,9.80
2022-12-26T20:04:28.870Z,9.80
2022-12-26T20:07:00.335Z,9.80
2022-12-26T20:09:27.552Z,9.80
2022-12-26T20:11:54.782Z,9.80
2022-12-26T20:14:26.919Z,9.90
2022-12-26T20:17:05.766Z,9.90
2022-12-26T20:19:36.158Z,9.90
2022-12-26T20:22:06.403Z,9.90
2022-12-26T20:24:33.966Z,9.80
2022-12-26T20:27:01.988Z,9.90
2022-12-26T20:29:29.713Z,9.90
2022-12-26T20:31:58.035Z,9.90
2022-12-26T20:34:26.607Z,9.90
2022-12-26T20:36:53.788Z,9.90
2022-12-26T20:39:22.777Z,10.00
2022-12-26T20:41:50.213Z,10.00
2022-12-26T20:44:18.263Z,10.00
2022-12-26T20:46:46.255Z,10.00
2022-12-26T20:49:13.991Z,10.10
2022-12-26T20:51:43.865Z,10.10
2022-12-26T20:54:14.562Z,10.10
2022-12-26T20:56:42.722Z,10.10
2022-12-26T20:59:12.838Z,10.10
2022-12-26T21:01:40.631Z,10.10
2022-12-26T21:04:16.461Z,10.20
2022-12-26T21:06:48.951Z,10.20
2022-12-26T21:09:16.812Z,10.30
2022-12-26T21:11:45.851Z,10.30
2022-12-26T21:14:19.195Z,10.40
2022-12-26T21:21:07.958Z,10.50
2022-12-26T21:23:48.753Z,10.50
2022-12-26T21:26:22.165Z,10.50
2022-12-26T21:28:49.336Z,10.40
2022-12-26T21:31:17.210Z,10.40
2022-12-26T21:33:46.058Z,10.50
2022-12-26T21:36:14.285Z,10.40
2022-12-26T21:38:41.981Z,10.50
2022-12-26T21:41:11.964Z,10.50
2022-12-26T21:43:39.277Z,10.50
2022-12-26T21:46:13.381Z,10.50
2022-12-26T21:48:50.349Z,10.60
2022-12-26T21:51:19.424Z,10.60
2022-12-26T21:53:47.263Z,10.60
2022-12-26T21:56:16.238Z,10.60
2022-12-26T21:59:03.519Z,10.60
2022-12-26T22:01:33.728Z,10.70
2022-12-26T22:04:24.003Z,10.70
2022-12-26T22:06:52.956Z,10.70
2022-12-26T22:09:20.412Z,10.70
2022-12-26T22:12:06.703Z,10.70
2022-12-26T22:14:36.366Z,10.80
2022-12-26T22:17:03.625Z,10.80
2022-12-26T22:19:33.440Z,10.80
2022-12-26T22:22:01.998Z,10.80
2022-12-26T22:24:30.924Z,10.80
2022-12-26T22:26:58.067Z,10.80
2022-12-26T22:29:26.191Z,10.80
2022-12-26T22:31:53.703Z,10.80
2022-12-26T22:34:20.896Z,10.80
2022-12-26T22:36:49.735Z,10.80
2022-12-26T22:39:17.568Z,10.80
2022-12-26T22:41:46.011Z,10.80
2022-12-26T22:44:14.396Z,10.70
2022-12-26T22:46:42.559Z,10.70
2022-12-26T22:49:10.110Z,10.70
2022-12-26T22:51:39.970Z,10.70
2022-12-26T22:54:08.284Z,10.70
2022-12-26T22:56:35.460Z,10.70
2022-12-26T22:59:03.361Z,10.70
2022-12-26T23:01:31.387Z,10.70
2022-12-26T23:04:01.088Z,10.70
2022-12-26T23:06:31.683Z,10.70
2022-12-26T23:09:01.401Z,10.70
2022-12-26T23:11:34.775Z,10.70
2022-12-26T23:14:07.444Z,10.70
2022-12-26T23:17:08.780Z,10.70
2022-12-26T23:20:20.800Z,10.70
2022-12-26T23:22:51.039Z,10.70
2022-12-26T23:25:18.484Z,10.70
2022-12-26T23:28:04.230Z,10.70
2022-12-26T23:30:31.790Z,10.60
2022-12-26T23:33:00.548Z,10.60
2022-12-26T23:35:27.857Z,10.60
2022-12-26T23:37:55.272Z,10.60
2022-12-26T23:40:23.248Z,10.50
2022-12-26T23:42:50.965Z,10.50
2022-12-26T23:45:18.938Z,10.50
2022-12-26T23:47:46.641Z,10.50
2022-12-26T23:50:16.247Z,10.40
2022-12-26T23:52:44.381Z,10.40
2022-12-26T23:55:12.228Z,10.40
2022-12-26T23:57:39.472Z,10.40
